• Join FlightAware (Why Join?)
  • Login
  • US Flag 
02:12AM EDT


 

Airport Tracker/Info


-or-


 

Live Flight TrackerFlight Track Log ✈ XOJ549 ✈ 07-May-2013 ✈ KSMO - KFSD

Flight Track Log - Related Links

Times and Time Zones

All times are in EDT time to prevent confusion due to time zone crossing. See the XOJ549 flight status page for this flight to view local times or setup timezone preferences in your user account.

Time Position Orientation Groundspeed Altitude Reporting Facility
EDT Latitude Longitude Course Direction KTS MPH feet Rate Location/Type
12:14PM 34.0000 -118.4667 257° West 161 185 800  Level Southern California TRACON
12:14PM 33.9919 -118.5086 257° West 203 234 2,100 2,400 Climbing Los Angeles Center
12:15PM 33.9956 -118.5733 274° West 195 224 4,600 2,340 Climbing Los Angeles Center
12:16PM 34.0494 -118.5956 341° North 216 249 7,000 2,040 Climbing Los Angeles Center
12:17PM 34.1061 -118.5578 29° Northeast 245 282 8,900 2,460 Climbing Los Angeles Center
12:18PM 34.1689 -118.5156 29° Northeast 255 293 12,200 3,000 Climbing Los Angeles Center
12:19PM 34.2594 -118.4608 27° Northeast 330 380 15,100 3,180 Climbing Los Angeles Center
12:20PM 34.3542 -118.4028 27° Northeast 369 425 18,800 2,880 Climbing Los Angeles Center
12:21PM 34.4719 -118.3269 28° Northeast 398 458 21,100 2,040 Climbing Los Angeles Center
12:22PM 34.5294 -118.1994 61° Northeast 424 488 23,100 1,920 Climbing Los Angeles Center
12:23PM 34.5675 -118.0558 72° East 439 505 25,100 1,740 Climbing Los Angeles Center
12:24PM 34.6097 -117.9056 71° East 465 535 26,700 1,620 Climbing Los Angeles Center
12:25PM 34.6561 -117.7486 70° East 484 557 28,500 1,740 Climbing Los Angeles Center
12:27PM 34.7017 -117.5906 71° East 495 570 30,300 1,740 Climbing Los Angeles Center
12:28PM 34.7594 -117.3964 70° East 510 587 32,100 1,560 Climbing Los Angeles Center
12:29PM 34.8072 -117.2306 71° East 522 601 33,600 1,500 Climbing Los Angeles Center
12:30PM 34.8547 -117.0617 71° East 530 610 35,200 1,500 Climbing Los Angeles Center
12:31PM 34.9094 -116.9378 62° Northeast 529 609 36,700 1,440 Climbing Los Angeles Center
12:32PM 34.9961 -116.8078 51° Northeast 505 581 38,200 1,740 Climbing Los Angeles Center
12:33PM 35.1169 -116.6275 51° Northeast 494 568 40,400 1,320 Climbing Los Angeles Center
12:34PM 35.2003 -116.5033 51° Northeast 479 551 41,000 240 Climbing Los Angeles Center
12:35PM 35.2878 -116.3739 50° Northeast 491 565 41,000  Level Los Angeles Center
12:36PM 35.3753 -116.2406 51° Northeast 502 578 41,000  Level Los Angeles Center
12:37PM 35.4622 -116.1058 52° Northeast 505 581 41,000  Level Los Angeles Center
12:38PM 35.5339 -115.9997 50° Northeast 505 581 41,000  Level Los Angeles Center
12:39PM 35.6478 -115.8256 51° Northeast 500 575 41,000  Level Los Angeles Center
12:40PM 35.7347 -115.6928 51° Northeast 500 575 41,000  Level Los Angeles Center
12:41PM 35.8381 -115.5339 51° Northeast 498 573 41,000  Level Los Angeles Center
12:42PM 35.9250 -115.4003 51° Northeast 502 578 41,000  Level Los Angeles Center
12:43PM 36.0094 -115.2692 51° Northeast 491 565 41,000  Level Los Angeles Center
12:44PM 36.0953 -115.1383 51° Northeast 492 566 41,000  Level Los Angeles Center
12:45PM 36.1919 -115.0167 45° Northeast 499 574 41,000  Level Los Angeles Center
12:46PM 36.3064 -114.8708 46° Northeast 496 571 41,000  Level Los Angeles Center
12:47PM 36.3839 -114.7736 45° Northeast 497 572 41,000  Level Los Angeles Center
12:48PM 36.4975 -114.6269 46° Northeast 494 568 41,000  Level Los Angeles Center
12:49PM 36.5922 -114.5039 46° Northeast 494 568 41,000  Level Los Angeles Center
12:50PM 36.6886 -114.3819 45° Northeast 494 568 41,000  Level Los Angeles Center
12:51PM 36.7808 -114.2558 48° Northeast 493 567 41,000  Level Los Angeles Center
12:52PM 36.8636 -114.0781 60° Northeast 495 570 41,000  Level Los Angeles Center
12:53PM 36.9339 -113.9297 59° Northeast 496 571 41,000  Level Los Angeles Center
12:54PM 36.9975 -113.7972 59° Northeast 492 566 41,000  Level Los Angeles Center
12:55PM 37.0800 -113.6214 60° Northeast 491 565 41,000  Level Los Angeles Center
12:56PM 37.1500 -113.4744 59° Northeast 492 566 41,000  Level Los Angeles Center
12:57PM 37.2186 -113.3281 59° Northeast 490 564 41,000  Level Los Angeles Center
12:58PM 37.2447 -113.2700 61° Northeast 489 563 41,000  Level Salt Lake Center
12:59PM 37.3131 -113.1231 60° Northeast 490 564 41,000  Level Salt Lake Center
01:00PM 37.3800 -112.9758 60° Northeast 490 564 41,000  Level Salt Lake Center
01:01PM 37.4483 -112.8306 59° Northeast 491 565 41,000  Level Salt Lake Center
01:02PM 37.5278 -112.6578 60° Northeast 490 564 41,000  Level Salt Lake Center
01:03PM 37.5947 -112.5122 60° Northeast 488 562 41,000  Level Salt Lake Center
01:04PM 37.6619 -112.3658 60° Northeast 487 560 41,000  Level Salt Lake Center
01:05PM 37.7342 -112.2242 57° Northeast 485 558 41,000  Level Salt Lake Center
01:06PM 37.8156 -112.0886 53° Northeast 485 558 41,000  Level Salt Lake Center
01:07PM 37.9106 -111.9236 54° Northeast 485 558 41,000  Level Salt Lake Center
01:08PM 37.9897 -111.7853 54° Northeast 486 559 41,000  Level Salt Lake Center
01:09PM 38.0689 -111.6469 54° Northeast 487 560 41,000  Level Salt Lake Center
01:10PM 38.1483 -111.5094 54° Northeast 484 557 41,100 480 Climbing Salt Lake Center
01:11PM 38.2267 -111.3703 54° Northeast 485 558 42,000 780 Climbing Salt Lake Center
01:12PM 38.3028 -111.2333 55° Northeast 478 550 42,800 480 Climbing Salt Lake Center
01:13PM 38.3792 -111.0975 54° Northeast 475 547 43,000 60 Climbing Salt Lake Center
01:14PM 38.4575 -110.9583 54° Northeast 483 556 43,000  Level Salt Lake Center
01:15PM 38.5494 -110.7933 54° Northeast 480 552 43,000  Level Salt Lake Center
01:16PM 38.6211 -110.6611 55° Northeast 475 547 43,000  Level Salt Lake Center
01:17PM 38.6433 -110.6133 59° Northeast 476 548 43,000  Level Denver Center
01:17PM 38.7058 -110.5058 53° Northeast 475 547 43,000  Level Salt Lake Center
01:18PM 38.7792 -110.3733 55° Northeast 476 548 43,000  Level Salt Lake Center
01:19PM 38.8025 -110.3286 56° Northeast 475 547 43,000  Level Denver Center
01:20PM 38.8742 -110.1939 56° Northeast 477 549 43,000  Level Denver Center
01:20PM 38.9347 -110.0853 54° Northeast 472 543 43,000  Level Salt Lake Center
01:21PM 39.0075 -109.9514 55° Northeast 476 548 43,000  Level Salt Lake Center
01:23PM 39.0922 -109.7956 55° Northeast 476 548 43,000  Level Salt Lake Center
01:23PM 39.1153 -109.7472 58° Northeast 480 552 43,000  Level Denver Center
01:24PM 39.1647 -109.6606 54° Northeast 478 550 43,000  Level Salt Lake Center
01:25PM 39.2486 -109.5025 56° Northeast 479 551 43,000  Level Salt Lake Center
01:26PM 39.3200 -109.3686 55° Northeast 474 545 43,000  Level Salt Lake Center
01:26PM 39.3428 -109.3208 58° Northeast 475 547 43,000  Level Denver Center
01:27PM 39.4258 -109.1628 56° Northeast 476 548 43,000  Level Denver Center
01:28PM 39.4742 -109.0733 55° Northeast 479 551 43,000  Level Salt Lake Center
01:28PM 39.4981 -109.0281 56° Northeast 476 548 43,000  Level Denver Center
01:29PM 39.5808 -108.8694 56° Northeast 476 548 43,000  Level Denver Center
01:30PM 39.6408 -108.7550 56° Northeast 480 552 43,000  Level Denver Center
01:31PM 39.7306 -108.5819 56° Northeast 480 552 43,000  Level Denver Center
01:32PM 39.8131 -108.4228 56° Northeast 476 548 43,000  Level Denver Center
01:33PM 39.8847 -108.2853 56° Northeast 481 554 43,000  Level Denver Center
01:34PM 39.9519 -108.1500 57° Northeast 462 532 43,000  Level Denver Center
01:35PM 40.0339 -107.9900 56° Northeast 473 544 43,000  Level Denver Center
01:36PM 40.0969 -107.8483 60° Northeast 472 543 43,000  Level Denver Center
01:37PM 40.1611 -107.6756 64° Northeast 472 543 43,000  Level Denver Center
01:39PM 40.2167 -107.5283 64° Northeast 471 542 43,000  Level Denver Center
01:40PM 40.2925 -107.3311 63° Northeast 474 545 43,000  Level Denver Center
01:41PM 40.3564 -107.1578 64° Northeast 474 545 43,000  Level Denver Center
01:42PM 40.4122 -107.0081 64° Northeast 477 549 43,000  Level Denver Center
01:43PM 40.4711 -106.8525 64° Northeast 478 550 43,000  Level Denver Center
01:44PM 40.5292 -106.6931 64° Northeast 481 554 43,000  Level Denver Center
01:45PM 40.5875 -106.5333 64° Northeast 481 554 43,000  Level Denver Center
01:46PM 40.6519 -106.3525 65° Northeast 479 551 43,000  Level Denver Center
01:47PM 40.7086 -106.2014 64° Northeast 479 551 43,000  Level Denver Center
01:48PM 40.7733 -106.0186 65° Northeast 478 550 43,000  Level Denver Center
01:49PM 40.8303 -105.8589 65° Northeast 478 550 43,000  Level Denver Center
01:50PM 40.8878 -105.6994 64° Northeast 478 550 43,000  Level Denver Center
01:51PM 40.9442 -105.5389 65° Northeast 479 551 43,000  Level Denver Center
01:52PM 41.0006 -105.3764 65° Northeast 479 551 43,000  Level Denver Center
01:53PM 41.0547 -105.2147 66° East 484 557 43,000  Level Denver Center
01:54PM 41.1172 -105.0414 64° Northeast 475 547 43,000  Level Denver Center
01:55PM 41.1697 -104.8894 65° Northeast 472 543 43,000  Level Denver Center
01:56PM 41.2261 -104.7069 68° East 476 548 43,000  Level Denver Center
01:57PM 41.2625 -104.5478 73° East 473 544 43,000  Level Denver Center
01:58PM 41.3006 -104.4175 69° East 475 547 43,000  Level Denver Center
01:59PM 41.3706 -104.2128 65° Northeast 476 548 43,000  Level Denver Center
02:00PM 41.4389 -104.0100 66° East 474 545 43,000  Level Denver Center
02:02PM 41.4900 -103.8564 66° East 475 547 43,000  Level Denver Center
02:03PM 41.5517 -103.6733 66° East 484 557 43,000  Level Denver Center
02:04PM 41.5947 -103.5439 66° East 482 555 43,000  Level Denver Center
02:05PM 41.6639 -103.3364 66° East 480 552 43,000  Level Denver Center
02:06PM 41.7144 -103.1811 66° East 479 551 43,000  Level Denver Center
02:07PM 41.7744 -102.9994 66° East 479 551 43,000  Level Denver Center
02:08PM 41.8247 -102.8428 67° East 479 551 43,000  Level Denver Center
02:09PM 41.8836 -102.6603 67° East 479 551 43,000  Level Denver Center
02:10PM 41.9425 -102.4764 67° East 480 552 43,000  Level Denver Center
02:11PM 42.0000 -102.2919 67° East 482 555 43,000  Level Denver Center
02:12PM 42.0564 -102.1203 66° East 484 557 43,000  Level Denver Center
02:13PM 42.1058 -101.9600 67° East 485 558 43,000  Level Denver Center
02:14PM 42.1644 -101.7731 67° East 484 557 43,000  Level Denver Center
02:15PM 42.2133 -101.6125 68° East 483 556 43,000  Level Denver Center
02:16PM 42.2633 -101.4508 67° East 486 559 43,000  Level Denver Center
02:17PM 42.3203 -101.2636 68° East 482 555 43,000  Level Denver Center
02:18PM 42.3697 -101.1019 67° East 484 557 43,000  Level Denver Center
02:19PM 42.4261 -100.9150 68° East 481 554 43,000  Level Denver Center
02:20PM 42.4736 -100.7547 68° East 479 551 43,000  Level Denver Center
02:21PM 42.5219 -100.5928 68° East 481 554 43,000  Level Denver Center
02:22PM 42.5781 -100.4069 68° East 478 550 43,000  Level Denver Center
02:23PM 42.6242 -100.2481 68° East 474 545 43,000  Level Denver Center
02:24PM 42.6783 -100.0597 69° East 478 550 43,000  Level Denver Center
02:25PM 42.7264 -99.8942 68° East 476 548 43,000  Level Denver Center
02:26PM 42.7744 -99.7258 69° East 477 549 43,000  Level Denver Center
02:27PM 42.8067 -99.6178 68° East 479 551 43,000 -600 Level Minneapolis Center
02:28PM 42.8539 -99.4494 69° East 476 548 42,100 -1,500 Descending Minneapolis Center
02:29PM 42.9022 -99.2797 69° East 477 549 39,900 -2,460 Descending Minneapolis Center
02:30PM 42.9497 -99.1117 69° East 473 544 37,100 -2,640 Descending Minneapolis Center
02:31PM 42.9950 -98.9453 70° East 478 550 34,500 -2,940 Descending Minneapolis Center
02:32PM 43.0550 -98.7283 69° East 507 583 31,100 -3,060 Descending Minneapolis Center
02:33PM 43.1072 -98.5447 69° East 517 595 28,200 -2,820 Descending Minneapolis Center
02:34PM 43.1547 -98.3686 70° East 498 573 25,300 -2,700 Descending Minneapolis Center
02:35PM 43.1981 -98.2019 70° East 474 545 22,700 -2,520 Descending Minneapolis Center
02:36PM 43.2400 -98.0461 70° East 446 513 20,100 -2,760 Descending Minneapolis Center
02:37PM 43.2811 -97.8958 69° East 427 491 17,000 -3,240 Descending Minneapolis Center
02:38PM 43.3261 -97.7297 70° East 392 451 13,400 -2,820 Descending Minneapolis Center
02:39PM 43.3561 -97.5994 72° East 374 430 11,200 -1,740 Descending Minneapolis Center
02:40PM 43.3850 -97.4931 69° East 331 381 9,900 -1,500 Descending Minneapolis Center
02:41PM 43.4119 -97.3953 69° East 297 342 8,100 -1,800 Descending Minneapolis Center
02:43PM 43.4369 -97.2972 71° East 281 323 6,300 -1,020 Descending Minneapolis Center
02:44PM 43.4625 -97.2014 70° East 273 314 6,000 -180 Descending Minneapolis Center
02:45PM 43.4931 -97.0839 70° East 272 313 6,000  Level Minneapolis Center
02:46PM 43.5181 -96.9858 71° East 273 314 6,000 -780 Level Minneapolis Center
02:47PM 43.5428 -96.8906 70° East 270 311 4,500 -1,440 Descending Minneapolis Center
02:48PM 43.5717 -96.8011 66° East 264 304 3,100 -900 Descending Minneapolis Center
02:49PM 43.6292 -96.7764 17° North 226 260 2,700 -480 Descending Minneapolis Center
02:50PM 43.6272 -96.7228 93° East 161 185 2,200 -420 Descending Minneapolis Center
02:51PM 43.5961 -96.7267 185° South 150 173 1,900 -300 Descending Minneapolis Center
02:53PM 43.5820 -96.7419 194° South  Level Estimated
03:00PM 43.5820 -96.7419 194° South  Level Estimated